createdAt,value
2023-01-26T00:02:37.708Z,-3.53
2023-01-26T00:07:42.928Z,-3.57
2023-01-26T00:12:45.162Z,-3.50
2023-01-26T00:17:47.304Z,-3.42
2023-01-26T00:22:49.587Z,-3.63
2023-01-26T00:27:51.861Z,-3.59
2023-01-26T00:32:54.120Z,-3.45
2023-01-26T00:37:56.395Z,-3.43
2023-01-26T00:42:59.604Z,-3.67
2023-01-26T00:48:02.104Z,-3.62
2023-01-26T00:53:04.916Z,-3.70
2023-01-26T00:58:08.222Z,-3.74
2023-01-26T01:03:10.413Z,-3.81
2023-01-26T01:08:13.385Z,-3.67
2023-01-26T01:13:15.550Z,-3.62
2023-01-26T01:18:17.634Z,-3.63
2023-01-26T01:23:21.638Z,-3.64
2023-01-26T01:28:23.957Z,-3.63
2023-01-26T01:33:26.090Z,-3.80
2023-01-26T01:38:28.406Z,-3.54
2023-01-26T01:43:30.762Z,-3.67
2023-01-26T01:48:51.385Z,-3.56
2023-01-26T01:53:54.805Z,-3.68
2023-01-26T01:58:58.568Z,-3.68
2023-01-26T02:04:02.463Z,-3.67
2023-01-26T02:09:06.350Z,-3.68
2023-01-26T02:14:10.120Z,-3.80
2023-01-26T02:19:23.358Z,-3.63
2023-01-26T02:24:34.685Z,-3.52
2023-01-26T02:29:36.837Z,-3.57
2023-01-26T02:34:39.098Z,-3.74
2023-01-26T02:39:59.091Z,-3.73
2023-01-26T02:45:01.343Z,-3.53
2023-01-26T02:50:05.532Z,-3.76
2023-01-26T02:55:28.826Z,-3.53
2023-01-26T03:00:35.184Z,-3.50
2023-01-26T03:05:38.278Z,-3.67
2023-01-26T03:10:53.768Z,-3.61
2023-01-26T03:15:55.980Z,-3.65
2023-01-26T03:21:18.500Z,-3.54
2023-01-26T03:26:39.598Z,-3.70
2023-01-26T03:31:42.755Z,-3.76
2023-01-26T03:36:45.053Z,-3.58
2023-01-26T03:42:08.305Z,-3.68
2023-01-26T03:47:29.335Z,-3.55
2023-01-26T03:52:51.598Z,-3.63
2023-01-26T03:57:54.599Z,-3.57
2023-01-26T04:03:15.339Z,-3.51
2023-01-26T04:08:30.647Z,-3.66
2023-01-26T04:13:54.898Z,-3.77
2023-01-26T04:19:22.085Z,-3.78
2023-01-26T04:24:24.896Z,-3.59
2023-01-26T04:29:31.029Z,-3.47
2023-01-26T04:34:33.208Z,-3.65
2023-01-26T04:39:37.698Z,-3.45
2023-01-26T04:44:40.760Z,-3.45
2023-01-26T04:49:43.993Z,-3.59
2023-01-26T04:54:47.569Z,-3.58
2023-01-26T04:59:50.037Z,-3.49
2023-01-26T05:04:54.157Z,-3.70
2023-01-26T05:09:56.932Z,-3.66
2023-01-26T05:15:13.666Z,-3.43
2023-01-26T05:20:41.963Z,-3.54
2023-01-26T05:25:51.029Z,-3.66
2023-01-26T05:30:53.531Z,-3.55
2023-01-26T05:35:56.839Z,-3.54
2023-01-26T05:40:59.627Z,-3.44
2023-01-26T05:46:03.115Z,-3.45
2023-01-26T05:51:05.871Z,-3.48
2023-01-26T05:56:10.306Z,-3.53
2023-01-26T06:01:18.232Z,-3.46
2023-01-26T06:06:26.296Z,-3.36
2023-01-26T06:11:37.074Z,-3.43
2023-01-26T06:17:08.646Z,-3.51
2023-01-26T06:22:13.003Z,-3.36
2023-01-26T06:27:19.505Z,-3.45
2023-01-26T06:32:25.610Z,-3.87
2023-01-26T06:37:30.129Z,-3.51
2023-01-26T06:42:32.501Z,-3.50
2023-01-26T06:47:36.740Z,-3.35
2023-01-26T06:52:42.328Z,-3.33
2023-01-26T06:58:07.139Z,-3.31
2023-01-26T07:03:44.588Z,-3.43
2023-01-26T07:08:47.064Z,-3.23
2023-01-26T07:13:49.226Z,-3.37
2023-01-26T07:18:53.303Z,-3.19
2023-01-26T07:23:56.232Z,-3.17
2023-01-26T07:28:58.507Z,-3.32
2023-01-26T07:34:00.658Z,-3.17
2023-01-26T07:39:02.948Z,-3.13
2023-01-26T07:44:08.407Z,-3.12
2023-01-26T07:49:12.125Z,-3.11
2023-01-26T07:54:14.296Z,-3.17
2023-01-26T07:59:19.550Z,-3.11
2023-01-26T08:04:24.565Z,-3.04
2023-01-26T08:09:26.833Z,-3.19
2023-01-26T08:14:46.895Z,-3.09
2023-01-26T08:19:50.430Z,-3.01
2023-01-26T08:24:52.630Z,-3.17
2023-01-26T08:29:55.132Z,-3.08
2023-01-26T08:34:57.469Z,-2.87
2023-01-26T08:40:02.426Z,-3.11
2023-01-26T08:45:09.049Z,-3.23
2023-01-26T08:50:14.101Z,-2.94
2023-01-26T08:55:16.449Z,-2.90
2023-01-26T09:00:19.114Z,-2.99
2023-01-26T09:05:21.208Z,-2.76
2023-01-26T09:10:23.889Z,-2.74
2023-01-26T09:15:26.503Z,-2.73
2023-01-26T09:20:28.694Z,-2.82
2023-01-26T09:25:31.182Z,-2.69
2023-01-26T09:30:33.781Z,-2.71
2023-01-26T09:35:35.969Z,-2.61
2023-01-26T09:40:44.396Z,-2.67
2023-01-26T09:46:17.680Z,-2.55
2023-01-26T09:51:24.248Z,-2.59
2023-01-26T09:56:29.269Z,-2.59
2023-01-26T10:01:42.119Z,-2.62
2023-01-26T10:06:44.585Z,-2.82
2023-01-26T10:11:58.958Z,-2.55
2023-01-26T10:17:01.676Z,-2.56
2023-01-26T10:22:14.226Z,-2.63
2023-01-26T10:27:16.635Z,-2.53
2023-01-26T10:32:18.833Z,-2.56
2023-01-26T10:37:21.764Z,-2.52
2023-01-26T10:42:24.567Z,-2.57
2023-01-26T10:47:27.083Z,-2.65
2023-01-26T10:52:29.377Z,-2.62
2023-01-26T10:57:33.466Z,-2.57
2023-01-26T11:02:37.208Z,-2.55
2023-01-26T11:07:44.407Z,-2.67
2023-01-26T11:12:46.672Z,-2.58
2023-01-26T11:18:00.110Z,-2.44
2023-01-26T11:23:41.431Z,-2.66
2023-01-26T11:28:59.123Z,-2.40
2023-01-26T11:34:21.589Z,-2.37
2023-01-26T11:39:54.269Z,-2.36
2023-01-26T11:45:17.861Z,-2.35
2023-01-26T11:50:46.476Z,-2.43
2023-01-26T11:55:48.715Z,-2.39
2023-01-26T12:00:57.635Z,-2.41
2023-01-26T12:06:05.061Z,-2.34
2023-01-26T12:11:23.093Z,-2.34
2023-01-26T12:16:39.297Z,-2.50
2023-01-26T12:21:45.212Z,-2.36
2023-01-26T12:26:49.516Z,-2.35
2023-01-26T12:32:06.293Z,-2.45
2023-01-26T12:37:42.678Z,-2.27
2023-01-26T12:42:47.720Z,-2.44
2023-01-26T12:47:55.973Z,-2.41
2023-01-26T12:52:59.915Z,-2.32
2023-01-26T12:58:05.438Z,-2.43
2023-01-26T13:03:21.191Z,-2.47
2023-01-26T13:08:32.485Z,-2.27
2023-01-26T13:13:53.822Z,-2.54
2023-01-26T13:18:57.492Z,-2.41
2023-01-26T13:23:59.767Z,-2.43
2023-01-26T13:29:20.773Z,-2.24
2023-01-26T13:34:28.797Z,-2.35
2023-01-26T13:39:38.772Z,-2.27
2023-01-26T13:44:45.868Z,-2.58
2023-01-26T13:49:50.706Z,-2.44
2023-01-26T13:54:54.707Z,-2.31
2023-01-26T14:00:02.227Z,-2.30
2023-01-26T14:05:22.421Z,-2.33
2023-01-26T14:10:24.838Z,-2.46
2023-01-26T14:15:29.417Z,-2.51
2023-01-26T14:20:38.221Z,-2.46
2023-01-26T14:25:50.075Z,-2.32
2023-01-26T14:30:58.699Z,-2.26
2023-01-26T14:36:03.168Z,-2.36
2023-01-26T14:41:11.399Z,-2.25
2023-01-26T14:46:35.188Z,-2.23
2023-01-26T14:51:37.811Z,-2.28
2023-01-26T14:56:40.707Z,-2.42
2023-01-26T15:01:42.981Z,-2.60
2023-01-26T15:06:45.089Z,-2.52
2023-01-26T15:12:12.270Z,-2.25
2023-01-26T15:17:37.791Z,-2.22
2023-01-26T15:22:40.056Z,-2.54
2023-01-26T15:27:42.517Z,-2.28
2023-01-26T15:32:46.059Z,-2.28
2023-01-26T15:37:49.355Z,-2.26
2023-01-26T15:42:51.757Z,-2.47
2023-01-26T15:47:55.177Z,-2.25
2023-01-26T15:52:58.405Z,-2.28
2023-01-26T15:58:01.218Z,-2.40
2023-01-26T16:03:10.318Z,-2.44
2023-01-26T16:08:12.608Z,-2.46
2023-01-26T16:13:19.645Z,-2.50
2023-01-26T16:18:25.805Z,-2.27
2023-01-26T16:23:29.387Z,-2.29
2023-01-26T16:28:31.697Z,-2.45
2023-01-26T16:33:37.894Z,-2.85
2023-01-26T16:38:47.018Z,-3.29
2023-01-26T16:43:49.269Z,-2.72
2023-01-26T16:48:51.968Z,-2.70
2023-01-26T16:53:54.921Z,-2.41
2023-01-26T16:58:57.116Z,-2.54
2023-01-26T17:03:59.536Z,-2.40
2023-01-26T17:09:01.743Z,-2.33
2023-01-26T17:14:04.008Z,-2.36
2023-01-26T17:19:08.867Z,-2.57
2023-01-26T17:24:11.494Z,-2.47
2023-01-26T17:29:14.436Z,-2.45
2023-01-26T17:34:16.829Z,-2.58
2023-01-26T17:39:19.472Z,-2.64
2023-01-26T17:44:21.887Z,-2.31
2023-01-26T17:49:26.952Z,-2.57
2023-01-26T17:54:29.100Z,-2.32
2023-01-26T17:59:31.294Z,-2.51
2023-01-26T18:04:33.514Z,-2.40
2023-01-26T18:09:35.713Z,-2.48
2023-01-26T18:14:37.921Z,-2.38
2023-01-26T18:19:40.259Z,-2.43
2023-01-26T18:24:42.452Z,-2.63
2023-01-26T18:29:44.757Z,-2.59
2023-01-26T18:34:47.400Z,-2.50
2023-01-26T18:39:52.606Z,-2.69
2023-01-26T18:45:01.029Z,-2.38
2023-01-26T18:50:04.599Z,-2.37
2023-01-26T18:55:08.677Z,-2.61
2023-01-26T19:00:11.522Z,-2.51
2023-01-26T19:05:14.053Z,-2.52
2023-01-26T19:10:16.762Z,-2.50
2023-01-26T19:15:41.125Z,-2.35
2023-01-26T19:20:43.426Z,-2.39
2023-01-26T19:25:45.749Z,-2.42
2023-01-26T19:30:48.131Z,-2.42
2023-01-26T19:35:51.232Z,-2.43
2023-01-26T19:40:53.439Z,-2.47
2023-01-26T19:45:57.290Z,-2.56
2023-01-26T19:51:14.055Z,-2.62
2023-01-26T19:56:24.805Z,-2.49
2023-01-26T20:01:28.173Z,-2.66
2023-01-26T20:06:32.774Z,-2.65
2023-01-26T20:11:35.073Z,-2.51
2023-01-26T20:16:37.863Z,-2.53
2023-01-26T20:21:40.625Z,-2.64
2023-01-26T20:26:46.537Z,-2.51
2023-01-26T20:31:49.794Z,-2.52
2023-01-26T20:36:54.821Z,-2.58
2023-01-26T20:41:57.106Z,-2.56
2023-01-26T20:46:59.457Z,-2.53
2023-01-26T20:52:02.508Z,-2.71
2023-01-26T20:57:04.653Z,-2.74
2023-01-26T21:02:07.214Z,-2.62
2023-01-26T21:07:09.851Z,-2.57
2023-01-26T21:12:12.027Z,-2.60
2023-01-26T21:17:15.829Z,-2.72
2023-01-26T21:22:17.957Z,-2.55
2023-01-26T21:27:20.132Z,-2.57
2023-01-26T21:32:22.430Z,-2.76
2023-01-26T21:37:24.679Z,-2.58
2023-01-26T21:42:26.794Z,-2.78
2023-01-26T21:47:28.878Z,-2.72
2023-01-26T21:52:49.554Z,-2.58
2023-01-26T21:58:10.047Z,-2.55
2023-01-26T22:03:13.472Z,-2.82
2023-01-26T22:08:15.617Z,-2.58
2023-01-26T22:13:17.695Z,-2.60
2023-01-26T22:18:19.788Z,-2.72
2023-01-26T22:23:22.635Z,-2.64
2023-01-26T22:28:24.968Z,-2.73
2023-01-26T22:33:27.459Z,-2.64
2023-01-26T22:38:29.653Z,-2.77
2023-01-26T22:43:32.604Z,-2.75
2023-01-26T22:48:35.126Z,-2.66
2023-01-26T22:53:37.296Z,-2.66
2023-01-26T22:58:56.715Z,-2.84
2023-01-26T23:04:01.289Z,-2.67
2023-01-26T23:09:04.933Z,-2.71
2023-01-26T23:14:07.135Z,-2.81
2023-01-26T23:19:09.355Z,-2.84
2023-01-26T23:24:14.756Z,-2.71
2023-01-26T23:29:41.308Z,-2.87
2023-01-26T23:34:43.444Z,-2.81
2023-01-26T23:39:45.660Z,-2.73
2023-01-26T23:44:47.854Z,-2.92
2023-01-26T23:49:49.962Z,-2.70
2023-01-26T23:54:52.102Z,-2.90
2023-01-26T23:59:54.358Z,-2.93
